sensor_id;sensor_type;location;lat;lon;timestamp;P1;durP1;ratioP1;P2;durP2;ratioP2
51374;SDS011;37465;52.738;4.752;2022-12-11T00:02:19;108.22;;;36.20;;
51374;SDS011;37465;52.738;4.752;2022-12-11T00:04:47;107.00;;;34.60;;
51374;SDS011;37465;52.738;4.752;2022-12-11T00:07:15;120.22;;;36.33;;
51374;SDS011;37465;52.738;4.752;2022-12-11T00:09:42;99.43;;;33.58;;
51374;SDS011;37465;52.738;4.752;2022-12-11T00:12:10;97.28;;;32.72;;
51374;SDS011;37465;52.738;4.752;2022-12-11T00:14:37;108.95;;;36.58;;
51374;SDS011;37465;52.738;4.752;2022-12-11T00:17:05;101.18;;;35.50;;
51374;SDS011;37465;52.738;4.752;2022-12-11T00:19:34;106.60;;;35.05;;
51374;SDS011;37465;52.738;4.752;2022-12-11T00:22:02;105.03;;;35.88;;
51374;SDS011;37465;52.738;4.752;2022-12-11T00:24:29;105.00;;;35.95;;
51374;SDS011;37465;52.738;4.752;2022-12-11T00:26:57;105.60;;;36.70;;
51374;SDS011;37465;52.738;4.752;2022-12-11T00:29:24;108.13;;;36.65;;
51374;SDS011;37465;52.738;4.752;2022-12-11T00:31:52;112.80;;;36.90;;
51374;SDS011;37465;52.738;4.752;2022-12-11T00:34:20;104.55;;;33.67;;
51374;SDS011;37465;52.738;4.752;2022-12-11T00:36:49;104.53;;;35.22;;
51374;SDS011;37465;52.738;4.752;2022-12-11T00:39:16;111.15;;;36.58;;
51374;SDS011;37465;52.738;4.752;2022-12-11T00:41:44;104.88;;;35.65;;
51374;SDS011;37465;52.738;4.752;2022-12-11T00:44:12;102.50;;;33.45;;
51374;SDS011;37465;52.738;4.752;2022-12-11T00:46:39;108.22;;;36.28;;
51374;SDS011;37465;52.738;4.752;2022-12-11T00:49:07;104.72;;;35.35;;
51374;SDS011;37465;52.738;4.752;2022-12-11T00:51:35;107.68;;;36.05;;
51374;SDS011;37465;52.738;4.752;2022-12-11T00:54:04;98.57;;;35.28;;
51374;SDS011;37465;52.738;4.752;2022-12-11T00:56:31;109.68;;;37.45;;
51374;SDS011;37465;52.738;4.752;2022-12-11T00:58:59;109.53;;;37.78;;
51374;SDS011;37465;52.738;4.752;2022-12-11T01:01:27;104.40;;;35.90;;
51374;SDS011;37465;52.738;4.752;2022-12-11T01:03:54;104.82;;;36.63;;
51374;SDS011;37465;52.738;4.752;2022-12-11T01:06:23;104.00;;;36.55;;
51374;SDS011;37465;52.738;4.752;2022-12-11T01:08:51;95.75;;;34.13;;
51374;SDS011;37465;52.738;4.752;2022-12-11T01:11:41;95.97;;;34.60;;
51374;SDS011;37465;52.738;4.752;2022-12-11T01:14:08;99.78;;;36.10;;
51374;SDS011;37465;52.738;4.752;2022-12-11T01:16:37;95.50;;;34.43;;
51374;SDS011;37465;52.738;4.752;2022-12-11T01:19:05;99.38;;;34.90;;
51374;SDS011;37465;52.738;4.752;2022-12-11T01:21:32;93.93;;;34.30;;
51374;SDS011;37465;52.738;4.752;2022-12-11T01:24:00;93.18;;;34.13;;
51374;SDS011;37465;52.738;4.752;2022-12-11T01:26:28;86.10;;;31.50;;
51374;SDS011;37465;52.738;4.752;2022-12-11T01:28:57;98.93;;;35.67;;
51374;SDS011;37465;52.738;4.752;2022-12-11T01:31:25;98.85;;;36.60;;
51374;SDS011;37465;52.738;4.752;2022-12-11T01:33:53;80.82;;;32.33;;
51374;SDS011;37465;52.738;4.752;2022-12-11T01:36:20;91.68;;;33.58;;
51374;SDS011;37465;52.738;4.752;2022-12-11T01:38:49;88.87;;;34.43;;
51374;SDS011;37465;52.738;4.752;2022-12-11T01:41:19;97.75;;;34.28;;
51374;SDS011;37465;52.738;4.752;2022-12-11T01:43:58;83.45;;;32.97;;
51374;SDS011;37465;52.738;4.752;2022-12-11T01:46:29;86.32;;;33.20;;
51374;SDS011;37465;52.738;4.752;2022-12-11T01:48:58;83.57;;;31.48;;
51374;SDS011;37465;52.738;4.752;2022-12-11T01:51:26;80.55;;;31.92;;
51374;SDS011;37465;52.738;4.752;2022-12-11T01:53:56;85.10;;;33.00;;
51374;SDS011;37465;52.738;4.752;2022-12-11T01:56:25;78.90;;;29.83;;
51374;SDS011;37465;52.738;4.752;2022-12-11T01:58:55;86.03;;;32.63;;
51374;SDS011;37465;52.738;4.752;2022-12-11T02:01:27;75.32;;;29.05;;
51374;SDS011;37465;52.738;4.752;2022-12-11T02:03:58;72.63;;;28.70;;
51374;SDS011;37465;52.738;4.752;2022-12-11T02:06:28;69.20;;;27.00;;
51374;SDS011;37465;52.738;4.752;2022-12-11T02:08:57;77.32;;;29.95;;
51374;SDS011;37465;52.738;4.752;2022-12-11T02:11:26;72.28;;;29.15;;
51374;SDS011;37465;52.738;4.752;2022-12-11T02:13:59;75.72;;;29.42;;
51374;SDS011;37465;52.738;4.752;2022-12-11T02:16:32;82.05;;;30.38;;
51374;SDS011;37465;52.738;4.752;2022-12-11T02:19:06;83.90;;;30.60;;
51374;SDS011;37465;52.738;4.752;2022-12-11T02:21:45;90.47;;;31.63;;
51374;SDS011;37465;52.738;4.752;2022-12-11T02:24:23;76.53;;;31.60;;
51374;SDS011;37465;52.738;4.752;2022-12-11T02:26:59;77.85;;;29.48;;
51374;SDS011;37465;52.738;4.752;2022-12-11T02:29:41;100.93;;;44.55;;
51374;SDS011;37465;52.738;4.752;2022-12-11T02:32:12;106.53;;;46.90;;
51374;SDS011;37465;52.738;4.752;2022-12-11T02:34:43;100.20;;;46.03;;
51374;SDS011;37465;52.738;4.752;2022-12-11T02:37:15;103.10;;;46.65;;
51374;SDS011;37465;52.738;4.752;2022-12-11T02:39:45;98.43;;;44.88;;
51374;SDS011;37465;52.738;4.752;2022-12-11T02:42:14;96.60;;;46.00;;
51374;SDS011;37465;52.738;4.752;2022-12-11T02:44:43;94.85;;;44.28;;
51374;SDS011;37465;52.738;4.752;2022-12-11T02:47:12;94.85;;;44.88;;
51374;SDS011;37465;52.738;4.752;2022-12-11T02:49:42;97.30;;;45.03;;
51374;SDS011;37465;52.738;4.752;2022-12-11T02:52:11;93.87;;;44.43;;
51374;SDS011;37465;52.738;4.752;2022-12-11T02:54:40;94.95;;;45.63;;
51374;SDS011;37465;52.738;4.752;2022-12-11T02:57:11;93.78;;;44.42;;
51374;SDS011;37465;52.738;4.752;2022-12-11T02:59:41;95.57;;;45.70;;
51374;SDS011;37465;52.738;4.752;2022-12-11T03:02:12;94.50;;;45.87;;
51374;SDS011;37465;52.738;4.752;2022-12-11T03:04:41;98.93;;;46.53;;
51374;SDS011;37465;52.738;4.752;2022-12-11T03:07:10;100.40;;;46.72;;
51374;SDS011;37465;52.738;4.752;2022-12-11T03:09:41;97.80;;;46.95;;
51374;SDS011;37465;52.738;4.752;2022-12-11T03:12:10;94.72;;;45.70;;
51374;SDS011;37465;52.738;4.752;2022-12-11T03:14:39;95.70;;;45.35;;
51374;SDS011;37465;52.738;4.752;2022-12-11T03:17:11;96.33;;;46.30;;
51374;SDS011;37465;52.738;4.752;2022-12-11T03:19:43;91.10;;;44.13;;
51374;SDS011;37465;52.738;4.752;2022-12-11T03:22:15;88.68;;;44.60;;
51374;SDS011;37465;52.738;4.752;2022-12-11T03:24:45;77.47;;;39.65;;
51374;SDS011;37465;52.738;4.752;2022-12-11T03:27:17;75.55;;;39.53;;
51374;SDS011;37465;52.738;4.752;2022-12-11T03:29:47;68.25;;;35.55;;
51374;SDS011;37465;52.738;4.752;2022-12-11T03:32:20;67.10;;;36.65;;
51374;SDS011;37465;52.738;4.752;2022-12-11T03:34:51;73.95;;;38.40;;
51374;SDS011;37465;52.738;4.752;2022-12-11T03:37:23;74.45;;;38.53;;
51374;SDS011;37465;52.738;4.752;2022-12-11T03:39:52;70.78;;;38.72;;
51374;SDS011;37465;52.738;4.752;2022-12-11T03:42:24;70.05;;;38.28;;
51374;SDS011;37465;52.738;4.752;2022-12-11T03:44:53;66.85;;;36.85;;
51374;SDS011;37465;52.738;4.752;2022-12-11T03:47:23;66.60;;;36.20;;
51374;SDS011;37465;52.738;4.752;2022-12-11T03:49:52;64.00;;;35.97;;
51374;SDS011;37465;52.738;4.752;2022-12-11T03:52:20;66.43;;;36.13;;
51374;SDS011;37465;52.738;4.752;2022-12-11T03:54:48;68.57;;;36.25;;
51374;SDS011;37465;52.738;4.752;2022-12-11T03:57:18;64.97;;;34.90;;
51374;SDS011;37465;52.738;4.752;2022-12-11T03:59:48;65.00;;;35.13;;
51374;SDS011;37465;52.738;4.752;2022-12-11T04:02:16;66.95;;;36.63;;
51374;SDS011;37465;52.738;4.752;2022-12-11T04:04:45;68.05;;;36.75;;
51374;SDS011;37465;52.738;4.752;2022-12-11T04:07:12;64.93;;;35.60;;
51374;SDS011;37465;52.738;4.752;2022-12-11T04:09:40;65.85;;;35.85;;
51374;SDS011;37465;52.738;4.752;2022-12-11T04:12:08;64.32;;;33.83;;
51374;SDS011;37465;52.738;4.752;2022-12-11T04:14:35;63.83;;;34.60;;
51374;SDS011;37465;52.738;4.752;2022-12-11T04:17:20;64.75;;;34.90;;
51374;SDS011;37465;52.738;4.752;2022-12-11T04:20:04;65.78;;;35.40;;
51374;SDS011;37465;52.738;4.752;2022-12-11T04:22:50;62.70;;;33.63;;
51374;SDS011;37465;52.738;4.752;2022-12-11T04:25:50;65.47;;;34.65;;
51374;SDS011;37465;52.738;4.752;2022-12-11T04:28:17;63.97;;;35.45;;
51374;SDS011;37465;52.738;4.752;2022-12-11T04:30:46;66.53;;;34.80;;
51374;SDS011;37465;52.738;4.752;2022-12-11T04:33:15;64.50;;;33.95;;
51374;SDS011;37465;52.738;4.752;2022-12-11T04:35:44;62.87;;;34.30;;
51374;SDS011;37465;52.738;4.752;2022-12-11T04:38:11;65.78;;;35.20;;
51374;SDS011;37465;52.738;4.752;2022-12-11T04:40:39;63.35;;;35.25;;
51374;SDS011;37465;52.738;4.752;2022-12-11T04:43:07;63.03;;;34.65;;
51374;SDS011;37465;52.738;4.752;2022-12-11T04:45:34;62.95;;;34.72;;
51374;SDS011;37465;52.738;4.752;2022-12-11T04:48:02;63.20;;;34.73;;
51374;SDS011;37465;52.738;4.752;2022-12-11T04:50:30;61.78;;;33.97;;
51374;SDS011;37465;52.738;4.752;2022-12-11T04:52:59;64.95;;;34.38;;
51374;SDS011;37465;52.738;4.752;2022-12-11T04:55:27;63.15;;;34.50;;
51374;SDS011;37465;52.738;4.752;2022-12-11T04:57:54;64.75;;;34.95;;
51374;SDS011;37465;52.738;4.752;2022-12-11T05:00:22;66.15;;;36.50;;
51374;SDS011;37465;52.738;4.752;2022-12-11T05:02:50;64.75;;;35.85;;
51374;SDS011;37465;52.738;4.752;2022-12-11T05:05:17;65.53;;;37.25;;
51374;SDS011;37465;52.738;4.752;2022-12-11T05:07:45;70.95;;;38.65;;
51374;SDS011;37465;52.738;4.752;2022-12-11T05:10:14;66.68;;;38.50;;
51374;SDS011;37465;52.738;4.752;2022-12-11T05:12:42;69.95;;;39.53;;
51374;SDS011;37465;52.738;4.752;2022-12-11T05:15:09;69.55;;;39.05;;
51374;SDS011;37465;52.738;4.752;2022-12-11T05:17:37;65.40;;;38.85;;
51374;SDS011;37465;52.738;4.752;2022-12-11T05:20:05;67.45;;;39.13;;
51374;SDS011;37465;52.738;4.752;2022-12-11T05:22:34;65.80;;;39.28;;
51374;SDS011;37465;52.738;4.752;2022-12-11T05:25:02;65.45;;;37.65;;
51374;SDS011;37465;52.738;4.752;2022-12-11T05:27:31;59.95;;;36.85;;
51374;SDS011;37465;52.738;4.752;2022-12-11T05:29:59;60.92;;;36.42;;
51374;SDS011;37465;52.738;4.752;2022-12-11T05:32:27;60.90;;;36.03;;
51374;SDS011;37465;52.738;4.752;2022-12-11T05:34:55;61.72;;;35.63;;
51374;SDS011;37465;52.738;4.752;2022-12-11T05:37:22;61.92;;;36.28;;
51374;SDS011;37465;52.738;4.752;2022-12-11T05:39:50;58.88;;;34.88;;
51374;SDS011;37465;52.738;4.752;2022-12-11T05:42:18;58.43;;;33.63;;
51374;SDS011;37465;52.738;4.752;2022-12-11T05:44:55;55.65;;;32.95;;
51374;SDS011;37465;52.738;4.752;2022-12-11T05:47:22;58.58;;;32.97;;
51374;SDS011;37465;52.738;4.752;2022-12-11T05:49:50;58.87;;;33.57;;
51374;SDS011;37465;52.738;4.752;2022-12-11T05:52:18;55.08;;;31.92;;
51374;SDS011;37465;52.738;4.752;2022-12-11T05:54:47;56.35;;;31.90;;
51374;SDS011;37465;52.738;4.752;2022-12-11T05:57:15;57.72;;;32.53;;
51374;SDS011;37465;52.738;4.752;2022-12-11T05:59:42;56.03;;;32.40;;
51374;SDS011;37465;52.738;4.752;2022-12-11T06:02:11;57.35;;;32.70;;
51374;SDS011;37465;52.738;4.752;2022-12-11T06:04:39;58.10;;;33.17;;
51374;SDS011;37465;52.738;4.752;2022-12-11T06:07:07;58.92;;;33.13;;
51374;SDS011;37465;52.738;4.752;2022-12-11T06:09:34;57.45;;;33.80;;
51374;SDS011;37465;52.738;4.752;2022-12-11T06:12:02;57.63;;;33.08;;
51374;SDS011;37465;52.738;4.752;2022-12-11T06:14:30;57.97;;;32.88;;
51374;SDS011;37465;52.738;4.752;2022-12-11T06:16:58;59.28;;;32.97;;
51374;SDS011;37465;52.738;4.752;2022-12-11T06:19:28;57.97;;;32.70;;
51374;SDS011;37465;52.738;4.752;2022-12-11T06:22:02;55.78;;;33.00;;
51374;SDS011;37465;52.738;4.752;2022-12-11T06:24:29;58.17;;;32.63;;
51374;SDS011;37465;52.738;4.752;2022-12-11T06:26:57;59.22;;;33.72;;
51374;SDS011;37465;52.738;4.752;2022-12-11T06:29:25;58.10;;;33.30;;
51374;SDS011;37465;52.738;4.752;2022-12-11T06:31:52;54.72;;;32.75;;
51374;SDS011;37465;52.738;4.752;2022-12-11T06:34:20;47.67;;;25.55;;
51374;SDS011;37465;52.738;4.752;2022-12-11T06:36:49;45.13;;;24.33;;
51374;SDS011;37465;52.738;4.752;2022-12-11T06:39:17;43.53;;;23.05;;
51374;SDS011;37465;52.738;4.752;2022-12-11T06:41:45;49.80;;;25.08;;
51374;SDS011;37465;52.738;4.752;2022-12-11T06:46:40;46.17;;;23.10;;
51374;SDS011;37465;52.738;4.752;2022-12-11T07:06:28;44.72;;;21.10;;
51374;SDS011;37465;52.738;4.752;2022-12-11T07:08:56;55.55;;;23.98;;
51374;SDS011;37465;52.738;4.752;2022-12-11T07:38:33;51.00;;;22.17;;
51374;SDS011;37465;52.738;4.752;2022-12-11T07:41:00;60.50;;;24.50;;
51374;SDS011;37465;52.738;4.752;2022-12-11T07:43:28;75.40;;;35.92;;
51374;SDS011;37465;52.738;4.752;2022-12-11T07:46:00;70.20;;;35.33;;
51374;SDS011;37465;52.738;4.752;2022-12-11T07:48:28;67.07;;;34.55;;
51374;SDS011;37465;52.738;4.752;2022-12-11T07:51:06;64.82;;;33.10;;
51374;SDS011;37465;52.738;4.752;2022-12-11T07:53:34;59.50;;;31.98;;
51374;SDS011;37465;52.738;4.752;2022-12-11T07:56:02;59.27;;;31.83;;
51374;SDS011;37465;52.738;4.752;2022-12-11T07:58:30;58.70;;;30.65;;
51374;SDS011;37465;52.738;4.752;2022-12-11T08:00:57;53.95;;;29.60;;
51374;SDS011;37465;52.738;4.752;2022-12-11T08:03:26;55.25;;;29.35;;
51374;SDS011;37465;52.738;4.752;2022-12-11T08:05:54;50.05;;;28.02;;
51374;SDS011;37465;52.738;4.752;2022-12-11T08:08:22;48.53;;;27.30;;
51374;SDS011;37465;52.738;4.752;2022-12-11T08:10:49;47.75;;;28.02;;
51374;SDS011;37465;52.738;4.752;2022-12-11T08:13:17;46.60;;;26.43;;
51374;SDS011;37465;52.738;4.752;2022-12-11T08:15:44;44.85;;;25.35;;
51374;SDS011;37465;52.738;4.752;2022-12-11T08:18:12;46.00;;;25.83;;
51374;SDS011;37465;52.738;4.752;2022-12-11T08:20:41;47.00;;;26.30;;
51374;SDS011;37465;52.738;4.752;2022-12-11T08:23:09;48.47;;;26.42;;
51374;SDS011;37465;52.738;4.752;2022-12-11T08:25:37;45.30;;;25.50;;
51374;SDS011;37465;52.738;4.752;2022-12-11T08:28:04;45.88;;;25.88;;
51374;SDS011;37465;52.738;4.752;2022-12-11T08:30:32;46.38;;;27.05;;
51374;SDS011;37465;52.738;4.752;2022-12-11T08:33:00;45.58;;;25.73;;
51374;SDS011;37465;52.738;4.752;2022-12-11T08:35:27;47.08;;;26.55;;
51374;SDS011;37465;52.738;4.752;2022-12-11T08:37:56;43.08;;;25.08;;
51374;SDS011;37465;52.738;4.752;2022-12-11T08:40:24;46.55;;;26.20;;
51374;SDS011;37465;52.738;4.752;2022-12-11T08:42:52;46.80;;;26.80;;
51374;SDS011;37465;52.738;4.752;2022-12-11T08:45:19;45.97;;;26.88;;
51374;SDS011;37465;52.738;4.752;2022-12-11T08:47:47;42.38;;;25.92;;
51374;SDS011;37465;52.738;4.752;2022-12-11T08:50:14;43.97;;;27.10;;
51374;SDS011;37465;52.738;4.752;2022-12-11T08:52:42;44.63;;;27.43;;
51374;SDS011;37465;52.738;4.752;2022-12-11T08:55:11;43.90;;;27.17;;
51374;SDS011;37465;52.738;4.752;2022-12-11T08:57:39;43.70;;;26.35;;
51374;SDS011;37465;52.738;4.752;2022-12-11T09:00:07;42.03;;;26.63;;
51374;SDS011;37465;52.738;4.752;2022-12-11T09:02:37;44.17;;;27.65;;
51374;SDS011;37465;52.738;4.752;2022-12-11T09:05:06;44.78;;;27.63;;
51374;SDS011;37465;52.738;4.752;2022-12-11T09:07:36;43.25;;;27.30;;
51374;SDS011;37465;52.738;4.752;2022-12-11T09:10:04;41.15;;;26.23;;
51374;SDS011;37465;52.738;4.752;2022-12-11T09:12:35;42.05;;;27.00;;
51374;SDS011;37465;52.738;4.752;2022-12-11T09:15:03;37.67;;;26.70;;
51374;SDS011;37465;52.738;4.752;2022-12-11T09:17:32;37.08;;;25.42;;
51374;SDS011;37465;52.738;4.752;2022-12-11T09:20:00;34.50;;;24.70;;
51374;SDS011;37465;52.738;4.752;2022-12-11T09:22:28;30.90;;;22.60;;
51374;SDS011;37465;52.738;4.752;2022-12-11T09:24:55;29.67;;;22.48;;
51374;SDS011;37465;52.738;4.752;2022-12-11T09:27:23;30.02;;;22.60;;
51374;SDS011;37465;52.738;4.752;2022-12-11T09:29:52;29.05;;;21.98;;
51374;SDS011;37465;52.738;4.752;2022-12-11T09:32:20;28.20;;;21.20;;
51374;SDS011;37465;52.738;4.752;2022-12-11T09:34:49;27.13;;;20.90;;
51374;SDS011;37465;52.738;4.752;2022-12-11T09:37:17;26.70;;;21.23;;
51374;SDS011;37465;52.738;4.752;2022-12-11T09:39:44;26.50;;;20.90;;
51374;SDS011;37465;52.738;4.752;2022-12-11T09:42:13;26.13;;;20.30;;
51374;SDS011;37465;52.738;4.752;2022-12-11T09:44:43;24.40;;;20.60;;
51374;SDS011;37465;52.738;4.752;2022-12-11T09:47:16;25.67;;;20.08;;
51374;SDS011;37465;52.738;4.752;2022-12-11T09:49:48;23.95;;;19.33;;
51374;SDS011;37465;52.738;4.752;2022-12-11T09:52:19;23.45;;;18.55;;
51374;SDS011;37465;52.738;4.752;2022-12-11T09:54:49;24.02;;;19.30;;
51374;SDS011;37465;52.738;4.752;2022-12-11T09:57:27;23.42;;;19.15;;
51374;SDS011;37465;52.738;4.752;2022-12-11T10:00:21;24.23;;;18.98;;
51374;SDS011;37465;52.738;4.752;2022-12-11T10:02:56;22.63;;;15.98;;
51374;SDS011;37465;52.738;4.752;2022-12-11T10:05:46;19.40;;;13.27;;
51374;SDS011;37465;52.738;4.752;2022-12-11T10:08:18;22.75;;;15.15;;
51374;SDS011;37465;52.738;4.752;2022-12-11T10:10:50;23.17;;;14.55;;
51374;SDS011;37465;52.738;4.752;2022-12-11T10:13:23;23.55;;;14.05;;
51374;SDS011;37465;52.738;4.752;2022-12-11T10:15:56;22.65;;;17.75;;
51374;SDS011;37465;52.738;4.752;2022-12-11T10:18:27;23.63;;;18.67;;
51374;SDS011;37465;52.738;4.752;2022-12-11T10:20:56;23.77;;;18.40;;
51374;SDS011;37465;52.738;4.752;2022-12-11T10:23:24;22.33;;;18.27;;
51374;SDS011;37465;52.738;4.752;2022-12-11T10:26:02;22.33;;;18.40;;
51374;SDS011;37465;52.738;4.752;2022-12-11T10:28:30;22.37;;;18.53;;
51374;SDS011;37465;52.738;4.752;2022-12-11T10:31:00;23.15;;;15.27;;
51374;SDS011;37465;52.738;4.752;2022-12-11T10:33:36;24.23;;;15.00;;
51374;SDS011;37465;52.738;4.752;2022-12-11T10:36:08;23.05;;;14.82;;
51374;SDS011;37465;52.738;4.752;2022-12-11T10:38:37;22.02;;;14.40;;
51374;SDS011;37465;52.738;4.752;2022-12-11T10:41:09;19.55;;;12.85;;
51374;SDS011;37465;52.738;4.752;2022-12-11T10:43:39;21.00;;;13.98;;
51374;SDS011;37465;52.738;4.752;2022-12-11T10:46:13;21.27;;;14.25;;
51374;SDS011;37465;52.738;4.752;2022-12-11T10:48:47;19.90;;;13.45;;
51374;SDS011;37465;52.738;4.752;2022-12-11T10:51:15;23.13;;;14.65;;
51374;SDS011;37465;52.738;4.752;2022-12-11T10:53:48;20.90;;;13.10;;
51374;SDS011;37465;52.738;4.752;2022-12-11T10:56:23;22.75;;;14.05;;
51374;SDS011;37465;52.738;4.752;2022-12-11T10:58:51;24.52;;;18.95;;
51374;SDS011;37465;52.738;4.752;2022-12-11T11:01:20;22.45;;;17.55;;
51374;SDS011;37465;52.738;4.752;2022-12-11T11:03:54;21.85;;;17.30;;
51374;SDS011;37465;52.738;4.752;2022-12-11T11:06:24;20.23;;;14.05;;
51374;SDS011;37465;52.738;4.752;2022-12-11T11:08:53;20.23;;;13.50;;
51374;SDS011;37465;52.738;4.752;2022-12-11T11:11:23;22.67;;;17.35;;
51374;SDS011;37465;52.738;4.752;2022-12-11T11:14:03;20.67;;;17.10;;
51374;SDS011;37465;52.738;4.752;2022-12-11T11:16:33;19.80;;;14.07;;
51374;SDS011;37465;52.738;4.752;2022-12-11T11:19:04;20.83;;;13.95;;
51374;SDS011;37465;52.738;4.752;2022-12-11T11:21:33;20.38;;;13.40;;
51374;SDS011;37465;52.738;4.752;2022-12-11T11:24:01;20.20;;;13.07;;
51374;SDS011;37465;52.738;4.752;2022-12-11T11:26:30;19.95;;;16.38;;
51374;SDS011;37465;52.738;4.752;2022-12-11T11:29:21;21.67;;;17.42;;
51374;SDS011;37465;52.738;4.752;2022-12-11T11:31:52;23.02;;;18.50;;
51374;SDS011;37465;52.738;4.752;2022-12-11T11:34:21;20.45;;;15.55;;
51374;SDS011;37465;52.738;4.752;2022-12-11T11:36:54;21.05;;;15.05;;
51374;SDS011;37465;52.738;4.752;2022-12-11T11:39:25;20.65;;;14.35;;
51374;SDS011;37465;52.738;4.752;2022-12-11T11:41:57;20.42;;;13.43;;
51374;SDS011;37465;52.738;4.752;2022-12-11T11:44:29;22.57;;;17.73;;
51374;SDS011;37465;52.738;4.752;2022-12-11T11:46:59;22.92;;;17.73;;
51374;SDS011;37465;52.738;4.752;2022-12-11T11:49:35;20.38;;;16.83;;
51374;SDS011;37465;52.738;4.752;2022-12-11T11:52:11;20.52;;;13.77;;
51374;SDS011;37465;52.738;4.752;2022-12-11T11:54:45;17.48;;;12.70;;
51374;SDS011;37465;52.738;4.752;2022-12-11T11:57:16;17.55;;;12.10;;
51374;SDS011;37465;52.738;4.752;2022-12-11T11:59:49;15.80;;;11.15;;
51374;SDS011;37465;52.738;4.752;2022-12-11T12:02:20;17.20;;;12.52;;
51374;SDS011;37465;52.738;4.752;2022-12-11T12:04:49;15.38;;;11.48;;
51374;SDS011;37465;52.738;4.752;2022-12-11T12:07:21;16.48;;;11.48;;
51374;SDS011;37465;52.738;4.752;2022-12-11T12:09:54;16.13;;;11.15;;
51374;SDS011;37465;52.738;4.752;2022-12-11T12:12:29;20.23;;;11.63;;
51374;SDS011;37465;52.738;4.752;2022-12-11T12:15:07;17.77;;;12.35;;
51374;SDS011;37465;52.738;4.752;2022-12-11T12:17:45;16.33;;;12.13;;
51374;SDS011;37465;52.738;4.752;2022-12-11T12:20:26;15.10;;;10.57;;
51374;SDS011;37465;52.738;4.752;2022-12-11T12:22:59;13.52;;;10.20;;
51374;SDS011;37465;52.738;4.752;2022-12-11T12:25:34;13.88;;;10.32;;
51374;SDS011;37465;52.738;4.752;2022-12-11T12:40:39;12.35;;;8.40;;
51374;SDS011;37465;52.738;4.752;2022-12-11T12:43:25;11.77;;;10.48;;
51374;SDS011;37465;52.738;4.752;2022-12-11T12:46:01;12.32;;;10.23;;
51374;SDS011;37465;52.738;4.752;2022-12-11T13:11:01;15.30;;;10.20;;
51374;SDS011;37465;52.738;4.752;2022-12-11T13:13:33;14.70;;;10.82;;
51374;SDS011;37465;52.738;4.752;2022-12-11T13:16:06;15.55;;;10.82;;
51374;SDS011;37465;52.738;4.752;2022-12-11T13:18:36;14.88;;;11.25;;
51374;SDS011;37465;52.738;4.752;2022-12-11T13:23:54;16.42;;;12.15;;
51374;SDS011;37465;52.738;4.752;2022-12-11T13:26:28;18.00;;;12.52;;
51374;SDS011;37465;52.738;4.752;2022-12-11T13:28:57;17.63;;;13.07;;
51374;SDS011;37465;52.738;4.752;2022-12-11T13:31:27;16.27;;;12.02;;
51374;SDS011;37465;52.738;4.752;2022-12-11T13:34:04;20.55;;;14.07;;
51374;SDS011;37465;52.738;4.752;2022-12-11T13:36:35;20.13;;;13.02;;
51374;SDS011;37465;52.738;4.752;2022-12-11T13:39:07;21.45;;;13.95;;
51374;SDS011;37465;52.738;4.752;2022-12-11T13:41:43;22.35;;;14.40;;
51374;SDS011;37465;52.738;4.752;2022-12-11T13:44:14;24.13;;;14.30;;
51374;SDS011;37465;52.738;4.752;2022-12-11T13:46:44;20.92;;;14.27;;
51374;SDS011;37465;52.738;4.752;2022-12-11T13:49:17;21.50;;;14.27;;
51374;SDS011;37465;52.738;4.752;2022-12-11T13:51:51;22.52;;;15.18;;
51374;SDS011;37465;52.738;4.752;2022-12-11T13:54:24;25.05;;;14.65;;
51374;SDS011;37465;52.738;4.752;2022-12-11T13:59:22;26.35;;;15.73;;
51374;SDS011;37465;52.738;4.752;2022-12-11T14:01:52;22.75;;;14.85;;
51374;SDS011;37465;52.738;4.752;2022-12-11T14:04:22;22.38;;;14.52;;
51374;SDS011;37465;52.738;4.752;2022-12-11T14:06:50;25.65;;;15.88;;
51374;SDS011;37465;52.738;4.752;2022-12-11T14:09:18;25.33;;;16.17;;
51374;SDS011;37465;52.738;4.752;2022-12-11T14:11:49;23.50;;;14.77;;
51374;SDS011;37465;52.738;4.752;2022-12-11T14:14:23;25.48;;;15.95;;
51374;SDS011;37465;52.738;4.752;2022-12-11T14:16:53;24.02;;;14.57;;
51374;SDS011;37465;52.738;4.752;2022-12-11T14:19:21;25.02;;;15.85;;
51374;SDS011;37465;52.738;4.752;2022-12-11T14:21:54;26.80;;;16.23;;
51374;SDS011;37465;52.738;4.752;2022-12-11T14:24:23;25.05;;;15.95;;
51374;SDS011;37465;52.738;4.752;2022-12-11T14:26:52;25.45;;;15.30;;
51374;SDS011;37465;52.738;4.752;2022-12-11T14:29:24;24.55;;;15.55;;
51374;SDS011;37465;52.738;4.752;2022-12-11T14:31:53;23.92;;;15.65;;
51374;SDS011;37465;52.738;4.752;2022-12-11T14:34:22;26.48;;;17.45;;
51374;SDS011;37465;52.738;4.752;2022-12-11T14:36:51;26.80;;;17.15;;
51374;SDS011;37465;52.738;4.752;2022-12-11T14:39:21;26.92;;;17.33;;
51374;SDS011;37465;52.738;4.752;2022-12-11T14:41:53;28.35;;;17.60;;
51374;SDS011;37465;52.738;4.752;2022-12-11T14:44:25;26.52;;;15.80;;
51374;SDS011;37465;52.738;4.752;2022-12-11T14:46:55;28.05;;;18.13;;
51374;SDS011;37465;52.738;4.752;2022-12-11T14:49:25;27.67;;;17.15;;
51374;SDS011;37465;52.738;4.752;2022-12-11T14:52:05;29.88;;;18.15;;
51374;SDS011;37465;52.738;4.752;2022-12-11T14:54:41;34.30;;;19.67;;
51374;SDS011;37465;52.738;4.752;2022-12-11T14:57:13;29.90;;;19.10;;
51374;SDS011;37465;52.738;4.752;2022-12-11T14:59:45;26.75;;;17.15;;
51374;SDS011;37465;52.738;4.752;2022-12-11T15:05:02;29.60;;;17.88;;
51374;SDS011;37465;52.738;4.752;2022-12-11T15:07:33;31.00;;;20.20;;
51374;SDS011;37465;52.738;4.752;2022-12-11T15:10:01;30.30;;;18.92;;
51374;SDS011;37465;52.738;4.752;2022-12-11T15:12:31;31.35;;;19.13;;
51374;SDS011;37465;52.738;4.752;2022-12-11T15:14:59;30.27;;;19.38;;
51374;SDS011;37465;52.738;4.752;2022-12-11T15:17:30;27.65;;;17.08;;
51374;SDS011;37465;52.738;4.752;2022-12-11T15:22:29;30.75;;;18.77;;
51374;SDS011;37465;52.738;4.752;2022-12-11T15:24:57;32.10;;;21.20;;
51374;SDS011;37465;52.738;4.752;2022-12-11T15:27:29;34.83;;;22.75;;
51374;SDS011;37465;52.738;4.752;2022-12-11T15:29:59;32.90;;;21.02;;
51374;SDS011;37465;52.738;4.752;2022-12-11T15:32:26;35.47;;;21.05;;
51374;SDS011;37465;52.738;4.752;2022-12-11T15:34:57;34.30;;;20.10;;
51374;SDS011;37465;52.738;4.752;2022-12-11T15:37:26;34.92;;;20.23;;
51374;SDS011;37465;52.738;4.752;2022-12-11T15:39:56;32.58;;;19.77;;
51374;SDS011;37465;52.738;4.752;2022-12-11T15:42:25;28.52;;;18.13;;
51374;SDS011;37465;52.738;4.752;2022-12-11T15:44:55;33.30;;;18.13;;
51374;SDS011;37465;52.738;4.752;2022-12-11T15:47:24;33.88;;;20.38;;
51374;SDS011;37465;52.738;4.752;2022-12-11T15:49:53;34.05;;;20.33;;
51374;SDS011;37465;52.738;4.752;2022-12-11T15:52:21;28.85;;;17.77;;
51374;SDS011;37465;52.738;4.752;2022-12-11T15:54:49;33.67;;;18.85;;
51374;SDS011;37465;52.738;4.752;2022-12-11T15:57:18;35.05;;;18.60;;
51374;SDS011;37465;52.738;4.752;2022-12-11T15:59:47;31.48;;;18.33;;
51374;SDS011;37465;52.738;4.752;2022-12-11T16:02:16;33.40;;;19.73;;
51374;SDS011;37465;52.738;4.752;2022-12-11T16:04:44;35.03;;;18.98;;
51374;SDS011;37465;52.738;4.752;2022-12-11T16:07:13;33.55;;;19.52;;
51374;SDS011;37465;52.738;4.752;2022-12-11T16:09:43;31.75;;;18.52;;
51374;SDS011;37465;52.738;4.752;2022-12-11T16:12:11;30.83;;;18.77;;